sensor_id;sensor_type;location;lat;lon;timestamp;pressure;altitude;pressure_sealevel;temperature;humidity
56334;BME280;42240;53.626;55.886;2023-04-03T00:00:25;76853.41;;;-145.10;45.33
56334;BME280;42240;53.626;55.886;2023-04-03T00:01:57;76857.38;;;-145.10;45.31
56334;BME280;42240;53.626;55.886;2023-04-03T00:03:30;76867.25;;;-145.10;45.69
56334;BME280;42240;53.626;55.886;2023-04-03T00:05:03;76873.19;;;-145.10;45.61
56334;BME280;42240;53.626;55.886;2023-04-03T00:06:36;76873.19;;;-145.10;45.62
56334;BME280;42240;53.626;55.886;2023-04-03T00:08:09;76885.06;;;-145.10;45.76
56334;BME280;42240;53.626;55.886;2023-04-03T00:09:42;76879.13;;;-145.10;45.65
56334;BME280;42240;53.626;55.886;2023-04-03T00:11:15;76881.09;;;-145.10;45.79
56334;BME280;42240;53.626;55.886;2023-04-03T00:12:48;76881.09;;;-145.10;45.74
56334;BME280;42240;53.626;55.886;2023-04-03T00:14:21;76892.97;;;-145.10;45.83
56334;BME280;42240;53.626;55.886;2023-04-03T00:15:54;76896.94;;;-145.10;46.03
56334;BME280;42240;53.626;55.886;2023-04-03T00:17:27;76900.88;;;-145.10;46.42
56334;BME280;42240;53.626;55.886;2023-04-03T00:18:59;76916.69;;;-145.10;46.41
56334;BME280;42240;53.626;55.886;2023-04-03T00:20:33;76922.63;;;-145.10;46.50
56334;BME280;42240;53.626;55.886;2023-04-03T00:22:06;76930.53;;;-145.10;46.79
56334;BME280;42240;53.626;55.886;2023-04-03T00:23:39;76936.47;;;-145.10;46.94
56334;BME280;42240;53.626;55.886;2023-04-03T00:25:12;76952.28;;;-145.10;47.29
56334;BME280;42240;53.626;55.886;2023-04-03T00:26:44;76981.97;;;-145.10;48.00
56334;BME280;42240;53.626;55.886;2023-04-03T00:28:18;76976.03;;;-145.10;48.64
56334;BME280;42240;53.626;55.886;2023-04-03T00:29:51;76991.84;;;-145.10;48.49
56334;BME280;42240;53.626;55.886;2023-04-03T00:31:24;77003.72;;;-145.10;48.98
56334;BME280;42240;53.626;55.886;2023-04-03T00:32:57;77023.50;;;-145.10;49.32
56334;BME280;42240;53.626;55.886;2023-04-03T00:34:31;77031.41;;;-145.10;49.11
56334;BME280;42240;53.626;55.886;2023-04-03T00:36:08;77065.03;;;-145.10;49.68
56334;BME280;42240;53.626;55.886;2023-04-03T00:37:41;77065.03;;;-145.10;50.99
56334;BME280;42240;53.626;55.886;2023-04-03T00:39:14;77045.25;;;-145.10;51.83
56334;BME280;42240;53.626;55.886;2023-04-03T00:40:47;77047.22;;;-145.10;51.83
56334;BME280;42240;53.626;55.886;2023-04-03T00:42:21;77045.25;;;-145.10;51.99
56334;BME280;42240;53.626;55.886;2023-04-03T00:43:54;77043.25;;;-145.10;52.44
56334;BME280;42240;53.626;55.886;2023-04-03T00:45:31;77041.28;;;-145.10;52.03
56334;BME280;42240;53.626;55.886;2023-04-03T00:47:05;77047.22;;;-145.10;52.73
56334;BME280;42240;53.626;55.886;2023-04-03T00:48:40;77045.25;;;-145.10;52.84
56334;BME280;42240;53.626;55.886;2023-04-03T00:50:14;77037.34;;;-145.10;52.44
56334;BME280;42240;53.626;55.886;2023-04-03T00:51:47;77039.31;;;-145.10;52.46
56334;BME280;42240;53.626;55.886;2023-04-03T00:53:24;77045.25;;;-145.10;52.75
56334;BME280;42240;53.626;55.886;2023-04-03T00:54:59;77045.25;;;-145.10;52.89
56334;BME280;42240;53.626;55.886;2023-04-03T00:56:34;77037.34;;;-145.10;53.26
56334;BME280;42240;53.626;55.886;2023-04-03T00:58:08;77070.94;;;-145.10;53.07
56334;BME280;42240;53.626;55.886;2023-04-03T00:59:43;77051.19;;;-145.10;53.36
56334;BME280;42240;53.626;55.886;2023-04-03T01:01:18;77051.19;;;-145.10;53.46
56334;BME280;42240;53.626;55.886;2023-04-03T01:02:53;77067.00;;;-145.10;52.91
56334;BME280;42240;53.626;55.886;2023-04-03T01:04:30;77080.84;;;-145.10;53.51
56334;BME280;42240;53.626;55.886;2023-04-03T01:06:03;77084.78;;;-145.10;53.96
56334;BME280;42240;53.626;55.886;2023-04-03T01:07:37;77098.63;;;-145.10;54.29
56334;BME280;42240;53.626;55.886;2023-04-03T01:09:10;77110.50;;;-145.10;54.24
56334;BME280;42240;53.626;55.886;2023-04-03T01:10:43;77122.38;;;-145.10;55.26
56334;BME280;42240;53.626;55.886;2023-04-03T01:12:17;77165.88;;;-145.10;56.16
56334;BME280;42240;53.626;55.886;2023-04-03T01:13:52;77156.00;;;-145.10;57.30
56334;BME280;42240;53.626;55.886;2023-04-03T01:15:26;77150.06;;;-145.10;57.64
56334;BME280;42240;53.626;55.886;2023-04-03T01:17:01;77114.47;;;-145.10;57.80
56334;BME280;42240;53.626;55.886;2023-04-03T01:18:34;77098.63;;;-145.10;56.92
56334;BME280;42240;53.626;55.886;2023-04-03T01:23:44;77031.41;;;-145.10;55.40
56334;BME280;42240;53.626;55.886;2023-04-03T01:25:20;77019.53;;;-145.10;55.14
56334;BME280;42240;53.626;55.886;2023-04-03T01:26:54;77001.72;;;-145.10;54.98
56334;BME280;42240;53.626;55.886;2023-04-03T01:28:34;76991.84;;;-145.10;54.52
56334;BME280;42240;53.626;55.886;2023-04-03T01:30:07;76985.91;;;-145.10;54.20
56334;BME280;42240;53.626;55.886;2023-04-03T01:31:51;76972.06;;;-145.10;53.68
56334;BME280;42240;53.626;55.886;2023-04-03T01:33:24;76970.09;;;-145.10;52.93
56334;BME280;42240;53.626;55.886;2023-04-03T01:34:57;76960.22;;;-145.10;52.82
56334;BME280;42240;53.626;55.886;2023-04-03T01:36:30;76958.22;;;-145.10;52.70
56334;BME280;42240;53.626;55.886;2023-04-03T01:38:03;76946.38;;;-145.10;52.17
56334;BME280;42240;53.626;55.886;2023-04-03T01:39:36;76942.41;;;-145.10;52.34
56334;BME280;42240;53.626;55.886;2023-04-03T01:41:09;76936.47;;;-145.10;51.68
56334;BME280;42240;53.626;55.886;2023-04-03T01:42:42;76932.53;;;-145.10;51.61
56334;BME280;42240;53.626;55.886;2023-04-03T01:44:14;76926.59;;;-145.10;51.24
56334;BME280;42240;53.626;55.886;2023-04-03T01:45:47;76920.66;;;-145.10;50.83
56334;BME280;42240;53.626;55.886;2023-04-03T01:47:22;76920.66;;;-145.10;50.36
56334;BME280;42240;53.626;55.886;2023-04-03T01:48:55;76912.75;;;-145.10;50.33
56334;BME280;42240;53.626;55.886;2023-04-03T01:50:28;76912.75;;;-145.10;50.07
56334;BME280;42240;53.626;55.886;2023-04-03T01:52:01;76910.75;;;-145.10;50.04
56334;BME280;42240;53.626;55.886;2023-04-03T01:53:33;76900.88;;;-145.10;49.60
56334;BME280;42240;53.626;55.886;2023-04-03T01:55:06;76900.88;;;-145.10;49.45
56334;BME280;42240;53.626;55.886;2023-04-03T01:56:39;76932.53;;;-145.10;49.10
56334;BME280;42240;53.626;55.886;2023-04-03T01:58:13;76892.97;;;-145.10;49.17
56334;BME280;42240;53.626;55.886;2023-04-03T01:59:45;76892.97;;;-145.10;49.12
56334;BME280;42240;53.626;55.886;2023-04-03T02:01:18;76892.97;;;-145.10;48.66
56334;BME280;42240;53.626;55.886;2023-04-03T02:02:51;76896.94;;;-145.10;48.82
56334;BME280;42240;53.626;55.886;2023-04-03T02:04:24;76900.88;;;-145.10;48.46
56334;BME280;42240;53.626;55.886;2023-04-03T02:05:58;76877.16;;;-145.10;48.26
56334;BME280;42240;53.626;55.886;2023-04-03T02:07:31;76873.19;;;-145.10;48.07
56334;BME280;42240;53.626;55.886;2023-04-03T02:09:04;76865.28;;;-145.10;48.10
56334;BME280;42240;53.626;55.886;2023-04-03T02:10:36;76863.31;;;-145.10;48.16
56334;BME280;42240;53.626;55.886;2023-04-03T02:12:10;76853.41;;;-145.10;47.77
56334;BME280;42240;53.626;55.886;2023-04-03T02:13:43;76849.47;;;-145.10;47.89
56334;BME280;42240;53.626;55.886;2023-04-03T02:15:17;76849.47;;;-145.10;47.47
56334;BME280;42240;53.626;55.886;2023-04-03T02:16:49;76837.59;;;-145.10;47.17
56334;BME280;42240;53.626;55.886;2023-04-03T02:18:22;76833.66;;;-145.10;46.79
56334;BME280;42240;53.626;55.886;2023-04-03T02:19:55;76827.72;;;-145.10;46.84
56334;BME280;42240;53.626;55.886;2023-04-03T02:21:28;76813.88;;;-145.10;46.53
56334;BME280;42240;53.626;55.886;2023-04-03T02:23:01;76805.97;;;-145.10;46.15
56334;BME280;42240;53.626;55.886;2023-04-03T02:24:34;76794.09;;;-145.10;46.09
56334;BME280;42240;53.626;55.886;2023-04-03T02:26:09;76782.22;;;-145.10;45.79
56334;BME280;42240;53.626;55.886;2023-04-03T02:27:42;76764.44;;;-145.10;45.46
56334;BME280;42240;53.626;55.886;2023-04-03T02:29:15;76738.72;;;-145.10;45.14
56334;BME280;42240;53.626;55.886;2023-04-03T02:30:47;76681.38;;;-145.10;44.11
56334;BME280;42240;53.626;55.886;2023-04-03T02:32:20;76618.09;;;-145.10;43.40
56334;BME280;42240;53.626;55.886;2023-04-03T02:33:53;76548.88;;;-145.10;42.19
56334;BME280;42240;53.626;55.886;2023-04-03T02:35:26;76489.56;;;-145.10;41.20
56334;BME280;42240;53.626;55.886;2023-04-03T02:37:01;76455.97;;;-145.10;40.52
56334;BME280;42240;53.626;55.886;2023-04-03T02:38:34;76272.06;;;-145.10;39.19
56334;BME280;42240;53.626;55.886;2023-04-03T02:40:07;76119.81;;;-145.10;37.40
56334;BME280;42240;53.626;55.886;2023-04-03T02:41:41;75991.31;;;-145.10;35.87
56334;BME280;42240;53.626;55.886;2023-04-03T02:43:18;75872.69;;;-145.10;34.51
56334;BME280;42240;53.626;55.886;2023-04-03T02:44:51;75813.38;;;-145.10;33.63
56334;BME280;42240;53.626;55.886;2023-04-03T02:46:24;75765.94;;;-145.10;32.66
56334;BME280;42240;53.626;55.886;2023-04-03T02:47:57;75785.69;;;-145.10;32.15
56334;BME280;42240;53.626;55.886;2023-04-03T02:49:30;75736.28;;;-145.10;31.86
56334;BME280;42240;53.626;55.886;2023-04-03T02:51:03;75611.72;;;-145.10;31.82
56334;BME280;42240;53.626;55.886;2023-04-03T02:52:35;75578.13;;;-145.10;30.23
56334;BME280;42240;53.626;55.886;2023-04-03T02:54:08;75510.91;;;-145.10;30.21
56334;BME280;42240;53.626;55.886;2023-04-03T02:55:53;75471.38;;;-145.10;29.83
56334;BME280;42240;53.626;55.886;2023-04-03T02:57:26;75412.06;;;-145.10;29.47
56334;BME280;42240;53.626;55.886;2023-04-03T02:58:59;75390.31;;;-145.10;29.10
56334;BME280;42240;53.626;55.886;2023-04-03T03:00:32;75315.19;;;-145.10;28.69
56334;BME280;42240;53.626;55.886;2023-04-03T03:02:05;75283.56;;;-145.10;28.47
56334;BME280;42240;53.626;55.886;2023-04-03T03:03:37;75240.09;;;-145.10;27.72
56334;BME280;42240;53.626;55.886;2023-04-03T03:05:10;75192.63;;;-145.10;27.33
56334;BME280;42240;53.626;55.886;2023-04-03T03:06:43;75155.09;;;-145.10;27.91
56334;BME280;42240;53.626;55.886;2023-04-03T03:08:16;75172.88;;;-145.10;27.17
56334;BME280;42240;53.626;55.886;2023-04-03T03:09:52;75208.47;;;-145.10;26.92
56334;BME280;42240;53.626;55.886;2023-04-03T03:11:25;75178.81;;;-145.10;26.97
56334;BME280;42240;53.626;55.886;2023-04-03T03:12:58;75095.78;;;-145.10;26.59
56334;BME280;42240;53.626;55.886;2023-04-03T03:14:30;75052.31;;;-145.10;26.46
56334;BME280;42240;53.626;55.886;2023-04-03T03:16:04;75010.78;;;-145.10;26.25
56334;BME280;42240;53.626;55.886;2023-04-03T03:17:36;74963.34;;;-145.10;26.22
56334;BME280;42240;53.626;55.886;2023-04-03T03:19:10;75006.84;;;-145.10;26.13
56334;BME280;42240;53.626;55.886;2023-04-03T03:20:43;74977.19;;;-145.10;25.51
56334;BME280;42240;53.626;55.886;2023-04-03T03:22:16;75002.88;;;-145.10;25.68
56334;BME280;42240;53.626;55.886;2023-04-03T03:23:49;74921.84;;;-145.10;25.32
56334;BME280;42240;53.626;55.886;2023-04-03T03:25:21;74898.13;;;-145.10;25.41
56334;BME280;42240;53.626;55.886;2023-04-03T03:26:54;74959.41;;;-145.10;25.15
56334;BME280;42240;53.626;55.886;2023-04-03T03:28:27;75012.75;;;-145.10;25.05
56334;BME280;42240;53.626;55.886;2023-04-03T03:30:00;75010.78;;;-145.10;25.14
56334;BME280;42240;53.626;55.886;2023-04-03T03:31:33;75010.78;;;-145.10;25.41
56334;BME280;42240;53.626;55.886;2023-04-03T03:33:05;75028.56;;;-145.10;24.99
56334;BME280;42240;53.626;55.886;2023-04-03T03:34:39;75032.53;;;-145.10;25.23
56334;BME280;42240;53.626;55.886;2023-04-03T03:36:11;75109.63;;;-145.10;25.33
56334;BME280;42240;53.626;55.886;2023-04-03T03:37:44;75068.09;;;-145.10;25.37
56334;BME280;42240;53.626;55.886;2023-04-03T03:39:18;74998.94;;;-145.10;25.31
56334;BME280;42240;53.626;55.886;2023-04-03T03:40:51;74917.88;;;-145.10;24.95
56334;BME280;42240;53.626;55.886;2023-04-03T03:42:26;74915.91;;;-145.10;24.99
56334;BME280;42240;53.626;55.886;2023-04-03T03:43:58;74884.28;;;-145.10;24.57
56334;BME280;42240;53.626;55.886;2023-04-03T03:45:33;74844.75;;;-145.10;24.41
56334;BME280;42240;53.626;55.886;2023-04-03T03:47:07;75016.72;;;-145.10;24.70
56334;BME280;42240;53.626;55.886;2023-04-03T03:48:43;74975.22;;;-145.10;24.87
56334;BME280;42240;53.626;55.886;2023-04-03T03:50:16;74965.31;;;-145.10;24.42
56334;BME280;42240;53.626;55.886;2023-04-03T03:51:49;74969.28;;;-145.10;24.44
56334;BME280;42240;53.626;55.886;2023-04-03T03:53:23;74775.56;;;-145.10;24.02
56334;BME280;42240;53.626;55.886;2023-04-03T03:54:58;74844.75;;;-145.10;24.08
56334;BME280;42240;53.626;55.886;2023-04-03T03:56:31;74803.25;;;-145.10;24.25
56334;BME280;42240;53.626;55.886;2023-04-03T03:58:05;74834.88;;;-145.10;24.35
56334;BME280;42240;53.626;55.886;2023-04-03T03:59:39;74965.31;;;-145.10;24.35
56334;BME280;42240;53.626;55.886;2023-04-03T04:01:14;74917.88;;;-145.10;24.46
56334;BME280;42240;53.626;55.886;2023-04-03T04:02:53;74854.63;;;-145.10;24.30
56334;BME280;42240;53.626;55.886;2023-04-03T04:04:30;74825.00;;;-145.10;23.97
56334;BME280;42240;53.626;55.886;2023-04-03T04:06:03;74670.81;;;-145.10;23.92
56334;BME280;42240;53.626;55.886;2023-04-03T04:07:37;74631.28;;;-145.10;23.53
56334;BME280;42240;53.626;55.886;2023-04-03T04:09:10;74556.19;;;-145.10;23.49
56334;BME280;42240;53.626;55.886;2023-04-03T04:10:43;74720.25;;;-145.10;23.39
56334;BME280;42240;53.626;55.886;2023-04-03T04:12:18;74702.44;;;-145.10;23.30
56334;BME280;42240;53.626;55.886;2023-04-03T04:13:51;74698.50;;;-145.10;23.14
56334;BME280;42240;53.626;55.886;2023-04-03T04:15:26;74662.91;;;-145.10;23.54
56334;BME280;42240;53.626;55.886;2023-04-03T04:17:00;74745.94;;;-145.10;23.45
56334;BME280;42240;53.626;55.886;2023-04-03T04:18:35;74911.97;;;-145.10;23.93
56334;BME280;42240;53.626;55.886;2023-04-03T04:20:08;74809.19;;;-145.10;23.86
56334;BME280;42240;53.626;55.886;2023-04-03T04:21:41;74797.31;;;-145.10;23.88
56334;BME280;42240;53.626;55.886;2023-04-03T04:23:14;74819.06;;;-145.10;23.89
56334;BME280;42240;53.626;55.886;2023-04-03T04:24:47;74702.44;;;-145.10;23.37
56334;BME280;42240;53.626;55.886;2023-04-03T04:26:23;74647.09;;;-145.10;22.92
56334;BME280;42240;53.626;55.886;2023-04-03T04:27:56;74627.34;;;-145.10;23.05
56334;BME280;42240;53.626;55.886;2023-04-03T04:29:29;74544.34;;;-145.10;22.86
56334;BME280;42240;53.626;55.886;2023-04-03T04:31:11;74572.00;;;-145.10;22.91
56334;BME280;42240;53.626;55.886;2023-04-03T04:32:46;74698.50;;;-145.10;23.03
56334;BME280;42240;53.626;55.886;2023-04-03T04:34:19;74698.50;;;-145.10;23.19
56334;BME280;42240;53.626;55.886;2023-04-03T04:35:52;74730.13;;;-145.10;22.93
56334;BME280;42240;53.626;55.886;2023-04-03T04:37:26;74637.22;;;-145.10;22.93
56334;BME280;42240;53.626;55.886;2023-04-03T04:38:59;74639.19;;;-145.10;23.03
56334;BME280;42240;53.626;55.886;2023-04-03T04:40:33;74726.16;;;-145.10;23.39
56334;BME280;42240;53.626;55.886;2023-04-03T04:42:05;74694.53;;;-145.10;23.13
56334;BME280;42240;53.626;55.886;2023-04-03T04:43:40;74832.91;;;-145.10;23.64
56334;BME280;42240;53.626;55.886;2023-04-03T04:45:14;74791.38;;;-145.10;23.31
56334;BME280;42240;53.626;55.886;2023-04-03T04:46:49;74900.09;;;-145.10;23.63
56334;BME280;42240;53.626;55.886;2023-04-03T04:48:22;74825.00;;;-145.10;23.41
56334;BME280;42240;53.626;55.886;2023-04-03T04:49:55;74734.06;;;-145.10;23.19
56334;BME280;42240;53.626;55.886;2023-04-03T04:51:28;74852.66;;;-145.10;23.42
56334;BME280;42240;53.626;55.886;2023-04-03T04:53:09;74722.22;;;-145.10;23.10
56334;BME280;42240;53.626;55.886;2023-04-03T04:54:42;74803.25;;;-145.10;23.18
56334;BME280;42240;53.626;55.886;2023-04-03T04:56:15;74856.63;;;-145.10;23.84
56334;BME280;42240;53.626;55.886;2023-04-03T04:57:48;74781.50;;;-145.10;23.27
56334;BME280;42240;53.626;55.886;2023-04-03T04:59:21;74738.03;;;-145.10;23.24
56334;BME280;42240;53.626;55.886;2023-04-03T05:01:02;74783.47;;;-145.10;23.28
56334;BME280;42240;53.626;55.886;2023-04-03T05:02:37;74765.69;;;-145.10;23.07
56334;BME280;42240;53.626;55.886;2023-04-03T05:04:10;74872.44;;;-145.10;23.19
56334;BME280;42240;53.626;55.886;2023-04-03T05:05:47;74858.59;;;-145.10;23.41
56334;BME280;42240;53.626;55.886;2023-04-03T05:07:19;74801.28;;;-145.10;23.37
56334;BME280;42240;53.626;55.886;2023-04-03T05:08:52;74898.13;;;-145.10;23.64
56334;BME280;42240;53.626;55.886;2023-04-03T05:10:25;74848.72;;;-145.10;23.55
56334;BME280;42240;53.626;55.886;2023-04-03T05:11:58;74749.88;;;-145.10;23.26
56334;BME280;42240;53.626;55.886;2023-04-03T05:13:35;74722.22;;;-145.10;22.82
56334;BME280;42240;53.626;55.886;2023-04-03T05:15:08;74765.69;;;-145.10;22.79
56334;BME280;42240;53.626;55.886;2023-04-03T05:16:41;74878.34;;;-145.10;23.30
56334;BME280;42240;53.626;55.886;2023-04-03T05:18:14;74965.31;;;-145.10;23.49
56334;BME280;42240;53.626;55.886;2023-04-03T05:19:48;74722.22;;;-145.10;22.88
56334;BME280;42240;53.626;55.886;2023-04-03T05:21:23;74783.47;;;-145.10;22.96
56334;BME280;42240;53.626;55.886;2023-04-03T05:22:59;74599.69;;;-145.10;22.86
56334;BME280;42240;53.626;55.886;2023-04-03T05:24:31;74643.16;;;-145.10;22.47
56334;BME280;42240;53.626;55.886;2023-04-03T05:26:04;74585.84;;;-145.10;22.87
56334;BME280;42240;53.626;55.886;2023-04-03T05:27:38;74481.09;;;-145.10;22.30
56334;BME280;42240;53.626;55.886;2023-04-03T05:29:11;74651.06;;;-145.10;22.56
56334;BME280;42240;53.626;55.886;2023-04-03T05:30:52;74696.53;;;-145.10;22.66
56334;BME280;42240;53.626;55.886;2023-04-03T05:32:25;74704.44;;;-145.10;21.98
56334;BME280;42240;53.626;55.886;2023-04-03T05:34:20;74690.59;;;-145.10;22.41
56334;BME280;42240;53.626;55.886;2023-04-03T05:35:56;74651.06;;;-145.10;22.47
56334;BME280;42240;53.626;55.886;2023-04-03T05:37:32;74734.06;;;-145.10;22.59
56334;BME280;42240;53.626;55.886;2023-04-03T05:39:05;74807.19;;;-145.10;23.25
56334;BME280;42240;53.626;55.886;2023-04-03T05:40:41;74700.47;;;-145.10;22.68
56334;BME280;42240;53.626;55.886;2023-04-03T05:42:14;74643.16;;;-145.10;23.13
56334;BME280;42240;53.626;55.886;2023-04-03T05:43:49;74587.81;;;-145.10;22.48
56334;BME280;42240;53.626;55.886;2023-04-03T05:45:24;74593.75;;;-145.10;22.26
56334;BME280;42240;53.626;55.886;2023-04-03T05:46:57;74558.16;;;-145.10;22.10
56334;BME280;42240;53.626;55.886;2023-04-03T05:48:30;74528.53;;;-145.10;22.26
56334;BME280;42240;53.626;55.886;2023-04-03T05:50:06;74386.22;;;-145.10;21.69
56334;BME280;42240;53.626;55.886;2023-04-03T05:51:39;74409.94;;;-145.10;21.63
56334;BME280;42240;53.626;55.886;2023-04-03T05:53:27;74473.19;;;-145.10;21.37
56334;BME280;42240;53.626;55.886;2023-04-03T05:55:05;74479.13;;;-145.10;21.16
56334;BME280;42240;53.626;55.886;2023-04-03T05:56:40;74461.31;;;-145.10;21.59
56334;BME280;42240;53.626;55.886;2023-04-03T05:58:13;74390.19;;;-145.10;21.75
56334;BME280;42240;53.626;55.886;2023-04-03T05:59:47;74514.69;;;-145.10;22.08
56334;BME280;42240;53.626;55.886;2023-04-03T06:01:20;74475.16;;;-145.10;22.13
56334;BME280;42240;53.626;55.886;2023-04-03T06:02:53;74504.81;;;-145.10;21.75
56334;BME280;42240;53.626;55.886;2023-04-03T06:04:29;74572.00;;;-145.10;21.42
56334;BME280;42240;53.626;55.886;2023-04-03T06:06:03;74690.59;;;-145.10;21.85
56334;BME280;42240;53.626;55.886;2023-04-03T06:07:36;74599.69;;;-145.10;21.42
56334;BME280;42240;53.626;55.886;2023-04-03T06:09:09;74694.53;;;-145.10;21.67
56334;BME280;42240;53.626;55.886;2023-04-03T06:10:42;74803.25;;;-145.10;22.07
56334;BME280;42240;53.626;55.886;2023-04-03T06:12:16;74741.97;;;-145.10;21.56
56334;BME280;42240;53.626;55.886;2023-04-03T06:13:48;74741.97;;;-145.10;21.92
56334;BME280;42240;53.626;55.886;2023-04-03T06:15:22;74860.56;;;-145.10;21.97
56334;BME280;42240;53.626;55.886;2023-04-03T06:16:56;74832.91;;;-145.10;21.82
56334;BME280;42240;53.626;55.886;2023-04-03T06:18:28;74864.53;;;-145.10;22.00
56334;BME280;42240;53.626;55.886;2023-04-03T06:20:02;74927.78;;;-145.10;22.03
56334;BME280;42240;53.626;55.886;2023-04-03T06:21:36;74906.03;;;-145.10;22.29
56334;BME280;42240;53.626;55.886;2023-04-03T06:23:09;74844.75;;;-145.10;22.16
56334;BME280;42240;53.626;55.886;2023-04-03T06:24:42;74797.31;;;-145.10;22.09
56334;BME280;42240;53.626;55.886;2023-04-03T06:26:15;74911.97;;;-145.10;22.30
56334;BME280;42240;53.626;55.886;2023-04-03T06:27:48;74870.44;;;-145.10;22.26
56334;BME280;42240;53.626;55.886;2023-04-03T06:29:21;74825.00;;;-145.10;22.32
56334;BME280;42240;53.626;55.886;2023-04-03T06:30:54;74811.16;;;-145.10;22.15
56334;BME280;42240;53.626;55.886;2023-04-03T06:32:27;74777.56;;;-145.10;21.73
56334;BME280;42240;53.626;55.886;2023-04-03T06:34:00;74743.97;;;-145.10;21.64
56334;BME280;42240;53.626;55.886;2023-04-03T06:35:33;74745.94;;;-145.10;22.08
56334;BME280;42240;53.626;55.886;2023-04-03T06:37:16;74809.19;;;-145.10;21.72
56334;BME280;42240;53.626;55.886;2023-04-03T06:38:49;74872.44;;;-145.10;22.15
56334;BME280;42240;53.626;55.886;2023-04-03T06:40:23;74951.50;;;-145.10;21.67
56334;BME280;42240;53.626;55.886;2023-04-03T06:41:56;74969.28;;;-145.10;21.91
56334;BME280;42240;53.626;55.886;2023-04-03T06:43:40;75018.69;;;-145.10;21.94
56334;BME280;42240;53.626;55.886;2023-04-03T06:45:12;74957.41;;;-145.10;22.17
56334;BME280;42240;53.626;55.886;2023-04-03T06:46:45;74937.66;;;-145.10;22.29
56334;BME280;42240;53.626;55.886;2023-04-03T06:48:18;75006.84;;;-145.10;22.30
56334;BME280;42240;53.626;55.886;2023-04-03T06:49:51;75068.09;;;-145.10;22.20
56334;BME280;42240;53.626;55.886;2023-04-03T06:51:24;75087.88;;;-145.10;22.59
56334;BME280;42240;53.626;55.886;2023-04-03T06:52:58;75109.63;;;-145.10;22.80
56334;BME280;42240;53.626;55.886;2023-04-03T06:54:31;75121.47;;;-145.10;22.76
56334;BME280;42240;53.626;55.886;2023-04-03T06:56:04;75208.47;;;-145.10;23.03
56334;BME280;42240;53.626;55.886;2023-04-03T06:57:37;75212.41;;;-145.10;22.85
56334;BME280;42240;53.626;55.886;2023-04-03T06:59:10;75149.16;;;-145.10;23.21
56334;BME280;42240;53.626;55.886;2023-04-03T07:00:45;75184.72;;;-145.10;23.00
56334;BME280;42240;53.626;55.886;2023-04-03T07:02:19;75176.81;;;-145.10;23.20
56334;BME280;42240;53.626;55.886;2023-04-03T07:03:53;75184.72;;;-145.10;22.80
56334;BME280;42240;53.626;55.886;2023-04-03T07:05:26;75240.09;;;-145.10;22.28
56334;BME280;42240;53.626;55.886;2023-04-03T07:06:59;75228.22;;;-145.10;21.95
56334;BME280;42240;53.626;55.886;2023-04-03T07:08:32;75255.91;;;-145.10;22.18
56334;BME280;42240;53.626;55.886;2023-04-03T07:10:07;75244.03;;;-145.10;22.43
56334;BME280;42240;53.626;55.886;2023-04-03T07:11:39;75212.41;;;-145.10;22.52
56334;BME280;42240;53.626;55.886;2023-04-03T07:13:12;75210.44;;;-145.10;22.40
56334;BME280;42240;53.626;55.886;2023-04-03T07:14:45;75285.53;;;-145.10;22.19
56334;BME280;42240;53.626;55.886;2023-04-03T07:16:17;75319.16;;;-145.10;22.49
56334;BME280;42240;53.626;55.886;2023-04-03T07:17:50;75271.72;;;-145.10;23.15
56334;BME280;42240;53.626;55.886;2023-04-03T07:19:23;75291.47;;;-145.10;22.69
56334;BME280;42240;53.626;55.886;2023-04-03T07:21:01;75265.78;;;-145.10;22.94
56334;BME280;42240;53.626;55.886;2023-04-03T07:22:33;75295.44;;;-145.10;22.43
56334;BME280;42240;53.626;55.886;2023-04-03T07:24:06;75358.69;;;-145.10;22.70
56334;BME280;42240;53.626;55.886;2023-04-03T07:25:44;75291.47;;;-145.10;22.80
56334;BME280;42240;53.626;55.886;2023-04-03T07:27:17;75321.13;;;-145.10;22.68
56334;BME280;42240;53.626;55.886;2023-04-03T07:28:50;75249.97;;;-145.10;22.91
56334;BME280;42240;53.626;55.886;2023-04-03T07:30:23;75204.50;;;-145.10;22.67
56334;BME280;42240;53.626;55.886;2023-04-03T07:31:56;75218.34;;;-145.10;22.68
56334;BME280;42240;53.626;55.886;2023-04-03T07:33:29;75249.97;;;-145.10;22.69
56334;BME280;42240;53.626;55.886;2023-04-03T07:35:03;75236.13;;;-145.10;22.67
56334;BME280;42240;53.626;55.886;2023-04-03T07:36:36;75202.53;;;-145.10;22.63
56334;BME280;42240;53.626;55.886;2023-04-03T07:38:10;75194.63;;;-145.10;22.75
56334;BME280;42240;53.626;55.886;2023-04-03T07:39:46;75224.28;;;-145.10;22.48
56334;BME280;42240;53.626;55.886;2023-04-03T07:41:19;75184.72;;;-145.10;22.46
56334;BME280;42240;53.626;55.886;2023-04-03T07:42:54;75137.28;;;-145.10;22.21
56334;BME280;42240;53.626;55.886;2023-04-03T07:44:28;75149.16;;;-145.10;22.45
56334;BME280;42240;53.626;55.886;2023-04-03T07:46:04;75178.81;;;-145.10;22.39
56334;BME280;42240;53.626;55.886;2023-04-03T07:47:37;75204.50;;;-145.10;22.30
56334;BME280;42240;53.626;55.886;2023-04-03T07:49:10;75200.53;;;-145.10;22.73
56334;BME280;42240;53.626;55.886;2023-04-03T07:50:43;75228.22;;;-145.10;22.22
56334;BME280;42240;53.626;55.886;2023-04-03T07:52:15;75200.53;;;-145.10;22.20
56334;BME280;42240;53.626;55.886;2023-04-03T07:53:48;75236.13;;;-145.10;21.88
56334;BME280;42240;53.626;55.886;2023-04-03T07:55:21;75263.81;;;-145.10;22.24
56334;BME280;42240;53.626;55.886;2023-04-03T07:56:53;75236.13;;;-145.10;22.55
56334;BME280;42240;53.626;55.886;2023-04-03T07:58:26;75236.13;;;-145.10;22.31
56334;BME280;42240;53.626;55.886;2023-04-03T07:59:59;75267.75;;;-145.10;22.58
56334;BME280;42240;53.626;55.886;2023-04-03T08:01:32;75248.00;;;-145.10;22.54